sensor_id;sensor_type;location;lat;lon;timestamp;temperature;humidity
20827;DHT22;10574;52.508;13.236;2023-08-07T00:00:28;14.60;99.90
20827;DHT22;10574;52.508;13.236;2023-08-07T00:02:56;14.60;99.90
20827;DHT22;10574;52.508;13.236;2023-08-07T00:05:23;14.60;99.90
20827;DHT22;10574;52.508;13.236;2023-08-07T00:07:51;14.60;99.90
20827;DHT22;10574;52.508;13.236;2023-08-07T00:10:19;14.60;99.90
20827;DHT22;10574;52.508;13.236;2023-08-07T00:12:46;14.60;99.90
20827;DHT22;10574;52.508;13.236;2023-08-07T00:15:14;14.60;99.90
20827;DHT22;10574;52.508;13.236;2023-08-07T00:17:42;14.60;99.90
20827;DHT22;10574;52.508;13.236;2023-08-07T00:20:10;14.50;99.90
20827;DHT22;10574;52.508;13.236;2023-08-07T00:22:37;14.50;99.90
20827;DHT22;10574;52.508;13.236;2023-08-07T00:25:08;14.50;99.90
20827;DHT22;10574;52.508;13.236;2023-08-07T00:27:35;14.50;99.90
20827;DHT22;10574;52.508;13.236;2023-08-07T00:30:03;14.50;99.90
20827;DHT22;10574;52.508;13.236;2023-08-07T00:32:31;14.50;99.90
20827;DHT22;10574;52.508;13.236;2023-08-07T00:34:59;14.60;99.90
20827;DHT22;10574;52.508;13.236;2023-08-07T00:37:26;14.60;99.90
20827;DHT22;10574;52.508;13.236;2023-08-07T00:39:54;14.50;99.90
20827;DHT22;10574;52.508;13.236;2023-08-07T00:42:22;14.50;99.90
20827;DHT22;10574;52.508;13.236;2023-08-07T00:44:50;14.50;99.90
20827;DHT22;10574;52.508;13.236;2023-08-07T00:47:17;14.50;99.90
20827;DHT22;10574;52.508;13.236;2023-08-07T00:49:45;14.60;99.90
20827;DHT22;10574;52.508;13.236;2023-08-07T00:52:13;14.60;99.90
20827;DHT22;10574;52.508;13.236;2023-08-07T00:54:40;14.60;99.90
20827;DHT22;10574;52.508;13.236;2023-08-07T00:57:10;14.60;99.90
20827;DHT22;10574;52.508;13.236;2023-08-07T00:59:44;14.50;99.90
20827;DHT22;10574;52.508;13.236;2023-08-07T01:02:13;14.50;99.90
20827;DHT22;10574;52.508;13.236;2023-08-07T01:04:41;14.50;99.90
20827;DHT22;10574;52.508;13.236;2023-08-07T01:07:09;14.50;99.90
20827;DHT22;10574;52.508;13.236;2023-08-07T01:09:37;14.50;99.90
20827;DHT22;10574;52.508;13.236;2023-08-07T01:12:19;14.50;99.90
20827;DHT22;10574;52.508;13.236;2023-08-07T01:15:03;14.50;99.90
20827;DHT22;10574;52.508;13.236;2023-08-07T01:17:30;14.50;99.90
20827;DHT22;10574;52.508;13.236;2023-08-07T01:20:00;14.50;99.90
20827;DHT22;10574;52.508;13.236;2023-08-07T01:22:28;14.50;99.90
20827;DHT22;10574;52.508;13.236;2023-08-07T01:24:55;14.50;99.90
20827;DHT22;10574;52.508;13.236;2023-08-07T01:27:37;14.50;99.90
20827;DHT22;10574;52.508;13.236;2023-08-07T01:30:25;14.50;99.90
20827;DHT22;10574;52.508;13.236;2023-08-07T01:35:44;14.50;99.90
20827;DHT22;10574;52.508;13.236;2023-08-07T01:38:13;14.50;99.90
20827;DHT22;10574;52.508;13.236;2023-08-07T01:40:42;14.50;99.90
20827;DHT22;10574;52.508;13.236;2023-08-07T01:43:10;14.50;99.90
20827;DHT22;10574;52.508;13.236;2023-08-07T01:45:38;14.40;99.90
20827;DHT22;10574;52.508;13.236;2023-08-07T01:48:06;14.50;99.90
20827;DHT22;10574;52.508;13.236;2023-08-07T01:50:33;14.50;99.90
20827;DHT22;10574;52.508;13.236;2023-08-07T01:53:02;14.50;99.90
20827;DHT22;10574;52.508;13.236;2023-08-07T01:55:30;14.40;99.90
20827;DHT22;10574;52.508;13.236;2023-08-07T01:57:57;14.40;99.90
20827;DHT22;10574;52.508;13.236;2023-08-07T02:00:25;14.40;99.90
20827;DHT22;10574;52.508;13.236;2023-08-07T02:02:53;14.30;99.90
20827;DHT22;10574;52.508;13.236;2023-08-07T02:05:21;14.30;99.90
20827;DHT22;10574;52.508;13.236;2023-08-07T02:07:49;14.30;99.90
20827;DHT22;10574;52.508;13.236;2023-08-07T02:10:16;14.30;99.90
20827;DHT22;10574;52.508;13.236;2023-08-07T02:12:44;14.30;99.90
20827;DHT22;10574;52.508;13.236;2023-08-07T02:15:12;14.30;99.90
20827;DHT22;10574;52.508;13.236;2023-08-07T02:17:39;14.30;99.90
20827;DHT22;10574;52.508;13.236;2023-08-07T02:20:08;14.30;99.90
20827;DHT22;10574;52.508;13.236;2023-08-07T02:22:36;14.30;99.90
20827;DHT22;10574;52.508;13.236;2023-08-07T02:25:04;14.30;99.90
20827;DHT22;10574;52.508;13.236;2023-08-07T02:27:32;14.40;99.90
20827;DHT22;10574;52.508;13.236;2023-08-07T02:30:00;14.30;99.90
20827;DHT22;10574;52.508;13.236;2023-08-07T02:32:29;14.40;99.90
20827;DHT22;10574;52.508;13.236;2023-08-07T02:34:57;14.40;99.90
20827;DHT22;10574;52.508;13.236;2023-08-07T02:37:25;14.40;99.90
20827;DHT22;10574;52.508;13.236;2023-08-07T02:39:52;14.50;99.90
20827;DHT22;10574;52.508;13.236;2023-08-07T02:42:20;14.50;99.90
20827;DHT22;10574;52.508;13.236;2023-08-07T02:44:48;14.50;99.90
20827;DHT22;10574;52.508;13.236;2023-08-07T02:47:16;14.50;99.90
20827;DHT22;10574;52.508;13.236;2023-08-07T02:49:44;14.60;99.90
20827;DHT22;10574;52.508;13.236;2023-08-07T02:52:12;14.50;99.90
20827;DHT22;10574;52.508;13.236;2023-08-07T02:54:39;14.60;99.90
20827;DHT22;10574;52.508;13.236;2023-08-07T02:57:07;14.60;99.90
20827;DHT22;10574;52.508;13.236;2023-08-07T02:59:35;14.50;99.90
20827;DHT22;10574;52.508;13.236;2023-08-07T03:02:03;14.60;99.90
20827;DHT22;10574;52.508;13.236;2023-08-07T03:04:30;14.60;99.90
20827;DHT22;10574;52.508;13.236;2023-08-07T03:06:58;14.60;99.90
20827;DHT22;10574;52.508;13.236;2023-08-07T03:09:27;14.60;99.90
20827;DHT22;10574;52.508;13.236;2023-08-07T03:11:55;14.60;99.90
20827;DHT22;10574;52.508;13.236;2023-08-07T03:14:22;14.60;99.90
20827;DHT22;10574;52.508;13.236;2023-08-07T03:16:50;14.70;99.90
20827;DHT22;10574;52.508;13.236;2023-08-07T03:19:18;14.70;99.90
20827;DHT22;10574;52.508;13.236;2023-08-07T03:21:47;14.70;99.90
20827;DHT22;10574;52.508;13.236;2023-08-07T03:24:15;14.70;99.90
20827;DHT22;10574;52.508;13.236;2023-08-07T03:26:42;14.70;99.90
20827;DHT22;10574;52.508;13.236;2023-08-07T03:29:10;14.70;99.90
20827;DHT22;10574;52.508;13.236;2023-08-07T03:31:38;14.70;99.90
20827;DHT22;10574;52.508;13.236;2023-08-07T03:34:06;14.70;99.90
20827;DHT22;10574;52.508;13.236;2023-08-07T03:36:33;14.70;99.90
20827;DHT22;10574;52.508;13.236;2023-08-07T03:39:01;14.60;99.90
20827;DHT22;10574;52.508;13.236;2023-08-07T03:41:29;14.60;99.90
20827;DHT22;10574;52.508;13.236;2023-08-07T03:43:57;14.70;99.90
20827;DHT22;10574;52.508;13.236;2023-08-07T03:46:25;14.70;99.90
20827;DHT22;10574;52.508;13.236;2023-08-07T03:48:52;14.70;99.90
20827;DHT22;10574;52.508;13.236;2023-08-07T03:51:20;14.70;99.90
20827;DHT22;10574;52.508;13.236;2023-08-07T03:53:48;14.70;99.90
20827;DHT22;10574;52.508;13.236;2023-08-07T03:56:16;14.70;99.90
20827;DHT22;10574;52.508;13.236;2023-08-07T03:58:44;14.70;99.90
20827;DHT22;10574;52.508;13.236;2023-08-07T04:01:11;14.70;99.90
20827;DHT22;10574;52.508;13.236;2023-08-07T04:03:39;14.70;99.90
20827;DHT22;10574;52.508;13.236;2023-08-07T04:06:07;14.60;99.90
20827;DHT22;10574;52.508;13.236;2023-08-07T04:08:36;14.60;99.90
20827;DHT22;10574;52.508;13.236;2023-08-07T04:11:05;14.60;99.90
20827;DHT22;10574;52.508;13.236;2023-08-07T04:13:33;14.60;99.90
20827;DHT22;10574;52.508;13.236;2023-08-07T04:16:01;14.60;99.90
20827;DHT22;10574;52.508;13.236;2023-08-07T04:18:31;14.60;99.90
20827;DHT22;10574;52.508;13.236;2023-08-07T04:20:59;14.70;99.90
20827;DHT22;10574;52.508;13.236;2023-08-07T04:23:27;14.60;99.90
20827;DHT22;10574;52.508;13.236;2023-08-07T04:25:55;14.60;99.90
20827;DHT22;10574;52.508;13.236;2023-08-07T04:28:23;14.70;99.90
20827;DHT22;10574;52.508;13.236;2023-08-07T04:30:52;14.70;99.90
20827;DHT22;10574;52.508;13.236;2023-08-07T04:33:20;14.70;99.90
20827;DHT22;10574;52.508;13.236;2023-08-07T04:35:48;14.70;99.90
20827;DHT22;10574;52.508;13.236;2023-08-07T04:38:16;14.80;99.90
20827;DHT22;10574;52.508;13.236;2023-08-07T04:40:46;14.80;99.90
20827;DHT22;10574;52.508;13.236;2023-08-07T04:43:15;14.80;99.90
20827;DHT22;10574;52.508;13.236;2023-08-07T04:45:43;14.80;99.90
20827;DHT22;10574;52.508;13.236;2023-08-07T04:48:13;14.80;99.90
20827;DHT22;10574;52.508;13.236;2023-08-07T04:53:06;14.80;99.90
20827;DHT22;10574;52.508;13.236;2023-08-07T04:55:34;14.90;99.90
20827;DHT22;10574;52.508;13.236;2023-08-07T04:58:02;14.90;99.90
20827;DHT22;10574;52.508;13.236;2023-08-07T05:00:29;14.80;99.90
20827;DHT22;10574;52.508;13.236;2023-08-07T05:02:57;14.80;99.90
20827;DHT22;10574;52.508;13.236;2023-08-07T05:05:25;14.80;99.90
20827;DHT22;10574;52.508;13.236;2023-08-07T05:07:54;14.80;99.90
20827;DHT22;10574;52.508;13.236;2023-08-07T05:10:21;14.70;99.90
20827;DHT22;10574;52.508;13.236;2023-08-07T05:12:49;14.80;99.90
20827;DHT22;10574;52.508;13.236;2023-08-07T05:15:18;14.80;99.90
20827;DHT22;10574;52.508;13.236;2023-08-07T05:17:46;14.80;99.90
20827;DHT22;10574;52.508;13.236;2023-08-07T05:20:13;14.70;99.90
20827;DHT22;10574;52.508;13.236;2023-08-07T05:22:41;14.70;99.90
20827;DHT22;10574;52.508;13.236;2023-08-07T05:25:09;14.80;99.90
20827;DHT22;10574;52.508;13.236;2023-08-07T05:27:38;14.80;99.90
20827;DHT22;10574;52.508;13.236;2023-08-07T05:30:07;15.00;99.90
20827;DHT22;10574;52.508;13.236;2023-08-07T05:32:35;15.20;99.90
20827;DHT22;10574;52.508;13.236;2023-08-07T05:35:05;15.40;99.90
20827;DHT22;10574;52.508;13.236;2023-08-07T05:37:33;15.60;99.90
20827;DHT22;10574;52.508;13.236;2023-08-07T05:40:01;15.80;99.90
20827;DHT22;10574;52.508;13.236;2023-08-07T05:42:29;15.90;99.90
20827;DHT22;10574;52.508;13.236;2023-08-07T05:44:57;16.20;99.90
20827;DHT22;10574;52.508;13.236;2023-08-07T05:47:25;16.30;99.90
20827;DHT22;10574;52.508;13.236;2023-08-07T05:49:53;16.40;99.90
20827;DHT22;10574;52.508;13.236;2023-08-07T05:52:20;16.30;99.90
20827;DHT22;10574;52.508;13.236;2023-08-07T05:54:48;16.50;99.90
20827;DHT22;10574;52.508;13.236;2023-08-07T05:57:17;16.80;99.90
20827;DHT22;10574;52.508;13.236;2023-08-07T05:59:45;17.10;99.90
20827;DHT22;10574;52.508;13.236;2023-08-07T06:02:13;17.20;99.90
20827;DHT22;10574;52.508;13.236;2023-08-07T06:04:40;17.10;99.90
20827;DHT22;10574;52.508;13.236;2023-08-07T06:07:08;17.00;99.90
20827;DHT22;10574;52.508;13.236;2023-08-07T06:09:36;17.00;99.90
20827;DHT22;10574;52.508;13.236;2023-08-07T06:12:04;17.10;99.90
20827;DHT22;10574;52.508;13.236;2023-08-07T06:14:31;17.30;99.90
20827;DHT22;10574;52.508;13.236;2023-08-07T06:16:59;17.10;99.90
20827;DHT22;10574;52.508;13.236;2023-08-07T06:19:28;16.80;99.90
20827;DHT22;10574;52.508;13.236;2023-08-07T06:21:56;16.60;99.90
20827;DHT22;10574;52.508;13.236;2023-08-07T06:24:23;16.50;99.90
20827;DHT22;10574;52.508;13.236;2023-08-07T06:26:52;16.40;99.90
20827;DHT22;10574;52.508;13.236;2023-08-07T06:29:19;16.30;99.90
20827;DHT22;10574;52.508;13.236;2023-08-07T06:31:47;16.20;99.90
20827;DHT22;10574;52.508;13.236;2023-08-07T06:34:15;16.10;99.90
20827;DHT22;10574;52.508;13.236;2023-08-07T06:36:42;16.10;99.90
20827;DHT22;10574;52.508;13.236;2023-08-07T06:39:12;16.20;99.90
20827;DHT22;10574;52.508;13.236;2023-08-07T06:41:40;16.20;99.90
20827;DHT22;10574;52.508;13.236;2023-08-07T06:44:08;16.30;99.90
20827;DHT22;10574;52.508;13.236;2023-08-07T06:46:35;16.40;99.90
20827;DHT22;10574;52.508;13.236;2023-08-07T06:49:03;16.50;99.90
20827;DHT22;10574;52.508;13.236;2023-08-07T06:51:31;16.60;99.90
20827;DHT22;10574;52.508;13.236;2023-08-07T06:53:58;16.70;99.90
20827;DHT22;10574;52.508;13.236;2023-08-07T06:56:26;16.80;99.90
20827;DHT22;10574;52.508;13.236;2023-08-07T06:58:54;16.80;99.90
20827;DHT22;10574;52.508;13.236;2023-08-07T07:01:22;16.90;99.90
20827;DHT22;10574;52.508;13.236;2023-08-07T07:03:49;16.90;99.90
20827;DHT22;10574;52.508;13.236;2023-08-07T07:06:19;16.90;99.90
20827;DHT22;10574;52.508;13.236;2023-08-07T07:08:48;17.00;99.90
20827;DHT22;10574;52.508;13.236;2023-08-07T07:11:16;16.90;99.90
20827;DHT22;10574;52.508;13.236;2023-08-07T07:13:44;17.00;99.90
20827;DHT22;10574;52.508;13.236;2023-08-07T07:16:12;17.00;99.90
20827;DHT22;10574;52.508;13.236;2023-08-07T07:18:40;17.00;99.90
20827;DHT22;10574;52.508;13.236;2023-08-07T07:21:07;17.00;99.90
20827;DHT22;10574;52.508;13.236;2023-08-07T07:23:35;17.10;99.90
20827;DHT22;10574;52.508;13.236;2023-08-07T07:26:03;17.10;99.90
20827;DHT22;10574;52.508;13.236;2023-08-07T07:28:30;17.20;99.90
20827;DHT22;10574;52.508;13.236;2023-08-07T07:30:58;17.20;99.90
20827;DHT22;10574;52.508;13.236;2023-08-07T07:33:26;17.20;99.90
20827;DHT22;10574;52.508;13.236;2023-08-07T07:35:54;17.20;99.90
20827;DHT22;10574;52.508;13.236;2023-08-07T07:38:22;17.30;99.90
20827;DHT22;10574;52.508;13.236;2023-08-07T07:40:50;17.40;99.90
20827;DHT22;10574;52.508;13.236;2023-08-07T07:43:19;17.40;99.90
20827;DHT22;10574;52.508;13.236;2023-08-07T07:45:47;17.30;99.90
20827;DHT22;10574;52.508;13.236;2023-08-07T07:48:15;17.40;99.90
20827;DHT22;10574;52.508;13.236;2023-08-07T07:50:42;17.40;99.90
20827;DHT22;10574;52.508;13.236;2023-08-07T07:53:10;17.50;99.90
20827;DHT22;10574;52.508;13.236;2023-08-07T07:55:38;17.50;99.90
20827;DHT22;10574;52.508;13.236;2023-08-07T07:58:05;17.40;99.90
20827;DHT22;10574;52.508;13.236;2023-08-07T08:00:33;17.40;99.90
20827;DHT22;10574;52.508;13.236;2023-08-07T08:03:01;17.50;99.90
20827;DHT22;10574;52.508;13.236;2023-08-07T08:05:29;17.60;99.90
20827;DHT22;10574;52.508;13.236;2023-08-07T08:07:56;17.60;99.90
20827;DHT22;10574;52.508;13.236;2023-08-07T08:10:24;17.50;99.90
20827;DHT22;10574;52.508;13.236;2023-08-07T08:12:52;17.40;99.90
20827;DHT22;10574;52.508;13.236;2023-08-07T08:15:19;17.50;99.90
20827;DHT22;10574;52.508;13.236;2023-08-07T08:17:48;17.50;99.90
20827;DHT22;10574;52.508;13.236;2023-08-07T08:20:15;17.50;99.90
20827;DHT22;10574;52.508;13.236;2023-08-07T08:22:45;17.40;99.90
20827;DHT22;10574;52.508;13.236;2023-08-07T08:25:13;17.30;99.90
20827;DHT22;10574;52.508;13.236;2023-08-07T08:27:41;17.20;99.90
20827;DHT22;10574;52.508;13.236;2023-08-07T08:30:09;17.30;99.90
20827;DHT22;10574;52.508;13.236;2023-08-07T08:32:36;17.50;99.90
20827;DHT22;10574;52.508;13.236;2023-08-07T08:35:04;17.60;99.90
20827;DHT22;10574;52.508;13.236;2023-08-07T08:37:34;17.60;99.90
20827;DHT22;10574;52.508;13.236;2023-08-07T08:40:02;17.70;99.90
20827;DHT22;10574;52.508;13.236;2023-08-07T08:42:29;17.70;99.90
20827;DHT22;10574;52.508;13.236;2023-08-07T08:44:59;17.80;99.90
20827;DHT22;10574;52.508;13.236;2023-08-07T08:47:30;17.90;99.90
20827;DHT22;10574;52.508;13.236;2023-08-07T08:50:07;18.00;99.90
20827;DHT22;10574;52.508;13.236;2023-08-07T08:52:37;18.20;99.90
20827;DHT22;10574;52.508;13.236;2023-08-07T08:55:05;18.30;99.90
20827;DHT22;10574;52.508;13.236;2023-08-07T08:57:33;18.50;99.90
20827;DHT22;10574;52.508;13.236;2023-08-07T09:00:02;18.50;99.90
20827;DHT22;10574;52.508;13.236;2023-08-07T09:02:34;18.60;99.90
20827;DHT22;10574;52.508;13.236;2023-08-07T09:05:02;18.70;99.90
20827;DHT22;10574;52.508;13.236;2023-08-07T09:07:31;18.70;99.90
20827;DHT22;10574;52.508;13.236;2023-08-07T09:10:01;18.70;99.90
20827;DHT22;10574;52.508;13.236;2023-08-07T09:12:31;18.40;99.90
20827;DHT22;10574;52.508;13.236;2023-08-07T09:15:01;18.20;99.90
20827;DHT22;10574;52.508;13.236;2023-08-07T09:17:38;18.10;99.90
20827;DHT22;10574;52.508;13.236;2023-08-07T09:20:04;18.00;99.90
20827;DHT22;10574;52.508;13.236;2023-08-07T09:22:33;18.10;99.90
20827;DHT22;10574;52.508;13.236;2023-08-07T09:25:01;18.20;99.90
20827;DHT22;10574;52.508;13.236;2023-08-07T09:27:30;18.40;99.90
20827;DHT22;10574;52.508;13.236;2023-08-07T09:29:58;18.60;99.90
20827;DHT22;10574;52.508;13.236;2023-08-07T09:32:26;18.70;99.90
20827;DHT22;10574;52.508;13.236;2023-08-07T09:34:54;18.60;99.90
20827;DHT22;10574;52.508;13.236;2023-08-07T09:37:23;18.40;99.90
20827;DHT22;10574;52.508;13.236;2023-08-07T09:39:51;18.40;99.90
20827;DHT22;10574;52.508;13.236;2023-08-07T09:42:19;18.40;99.90
20827;DHT22;10574;52.508;13.236;2023-08-07T09:44:46;18.40;99.90
20827;DHT22;10574;52.508;13.236;2023-08-07T09:47:17;18.50;99.90
20827;DHT22;10574;52.508;13.236;2023-08-07T09:49:46;18.50;99.90
20827;DHT22;10574;52.508;13.236;2023-08-07T09:52:14;18.60;99.90
20827;DHT22;10574;52.508;13.236;2023-08-07T09:54:42;18.70;99.90
20827;DHT22;10574;52.508;13.236;2023-08-07T09:57:10;18.70;99.90
20827;DHT22;10574;52.508;13.236;2023-08-07T09:59:38;18.60;99.90
20827;DHT22;10574;52.508;13.236;2023-08-07T10:02:06;18.70;99.90
20827;DHT22;10574;52.508;13.236;2023-08-07T10:04:35;18.70;99.90
20827;DHT22;10574;52.508;13.236;2023-08-07T10:07:03;18.80;99.90
20827;DHT22;10574;52.508;13.236;2023-08-07T10:09:32;19.00;99.90
20827;DHT22;10574;52.508;13.236;2023-08-07T10:12:00;18.80;99.90
20827;DHT22;10574;52.508;13.236;2023-08-07T10:14:29;18.70;99.90
20827;DHT22;10574;52.508;13.236;2023-08-07T10:16:57;18.80;99.90
20827;DHT22;10574;52.508;13.236;2023-08-07T10:19:25;18.80;99.90
20827;DHT22;10574;52.508;13.236;2023-08-07T10:21:54;18.80;99.90
20827;DHT22;10574;52.508;13.236;2023-08-07T10:24:23;18.80;99.90
20827;DHT22;10574;52.508;13.236;2023-08-07T10:26:51;18.70;99.90
20827;DHT22;10574;52.508;13.236;2023-08-07T10:29:21;18.70;99.90
20827;DHT22;10574;52.508;13.236;2023-08-07T10:31:52;18.70;99.90
20827;DHT22;10574;52.508;13.236;2023-08-07T10:34:21;18.70;99.90
20827;DHT22;10574;52.508;13.236;2023-08-07T10:36:50;18.80;99.90
20827;DHT22;10574;52.508;13.236;2023-08-07T10:39:17;18.70;99.90
20827;DHT22;10574;52.508;13.236;2023-08-07T10:41:46;18.70;99.90
20827;DHT22;10574;52.508;13.236;2023-08-07T10:44:19;18.70;99.90
20827;DHT22;10574;52.508;13.236;2023-08-07T10:46:51;18.60;99.90
20827;DHT22;10574;52.508;13.236;2023-08-07T10:49:36;18.50;99.90
20827;DHT22;10574;52.508;13.236;2023-08-07T10:52:12;18.50;99.90
20827;DHT22;10574;52.508;13.236;2023-08-07T10:54:50;18.40;99.90
20827;DHT22;10574;52.508;13.236;2023-08-07T10:57:18;18.50;99.90
20827;DHT22;10574;52.508;13.236;2023-08-07T11:02:31;18.50;99.90
20827;DHT22;10574;52.508;13.236;2023-08-07T11:05:00;18.40;99.90
20827;DHT22;10574;52.508;13.236;2023-08-07T11:07:29;18.10;99.90
20827;DHT22;10574;52.508;13.236;2023-08-07T11:09:58;17.90;99.90
20827;DHT22;10574;52.508;13.236;2023-08-07T11:12:27;17.70;99.90
20827;DHT22;10574;52.508;13.236;2023-08-07T11:14:56;17.60;99.90
20827;DHT22;10574;52.508;13.236;2023-08-07T11:17:28;17.60;99.90
20827;DHT22;10574;52.508;13.236;2023-08-07T11:19:56;17.60;99.90
20827;DHT22;10574;52.508;13.236;2023-08-07T11:22:24;17.60;99.90
20827;DHT22;10574;52.508;13.236;2023-08-07T11:24:52;17.60;99.90
20827;DHT22;10574;52.508;13.236;2023-08-07T11:27:22;17.60;99.90
20827;DHT22;10574;52.508;13.236;2023-08-07T11:29:50;17.70;99.90
20827;DHT22;10574;52.508;13.236;2023-08-07T11:32:20;17.70;99.90
20827;DHT22;10574;52.508;13.236;2023-08-07T11:34:51;17.50;99.90
20827;DHT22;10574;52.508;13.236;2023-08-07T11:37:18;17.40;99.90
20827;DHT22;10574;52.508;13.236;2023-08-07T11:39:46;17.30;99.90
20827;DHT22;10574;52.508;13.236;2023-08-07T11:42:14;17.20;99.90
20827;DHT22;10574;52.508;13.236;2023-08-07T11:44:42;17.40;99.90
20827;DHT22;10574;52.508;13.236;2023-08-07T11:47:10;17.60;99.90
20827;DHT22;10574;52.508;13.236;2023-08-07T11:49:38;17.90;99.90
20827;DHT22;10574;52.508;13.236;2023-08-07T11:52:06;18.30;99.90
20827;DHT22;10574;52.508;13.236;2023-08-07T11:54:34;18.50;99.90
20827;DHT22;10574;52.508;13.236;2023-08-07T11:57:02;18.70;99.90
20827;DHT22;10574;52.508;13.236;2023-08-07T11:59:29;18.80;99.90
20827;DHT22;10574;52.508;13.236;2023-08-07T12:01:57;18.90;99.90
20827;DHT22;10574;52.508;13.236;2023-08-07T12:04:25;18.90;99.90
20827;DHT22;10574;52.508;13.236;2023-08-07T12:06:54;18.90;99.90
20827;DHT22;10574;52.508;13.236;2023-08-07T12:09:22;18.90;99.90
20827;DHT22;10574;52.508;13.236;2023-08-07T12:11:50;18.90;99.90
20827;DHT22;10574;52.508;13.236;2023-08-07T12:14:19;18.80;99.90
20827;DHT22;10574;52.508;13.236;2023-08-07T12:16:46;18.80;99.90
20827;DHT22;10574;52.508;13.236;2023-08-07T12:19:14;18.80;99.90
20827;DHT22;10574;52.508;13.236;2023-08-07T12:21:43;18.80;99.90
20827;DHT22;10574;52.508;13.236;2023-08-07T12:24:13;18.90;99.90
20827;DHT22;10574;52.508;13.236;2023-08-07T12:26:41;18.90;99.90
20827;DHT22;10574;52.508;13.236;2023-08-07T12:29:08;19.00;99.90
20827;DHT22;10574;52.508;13.236;2023-08-07T12:31:36;19.00;99.90
20827;DHT22;10574;52.508;13.236;2023-08-07T12:34:04;18.90;99.90
20827;DHT22;10574;52.508;13.236;2023-08-07T12:36:32;18.90;99.90
20827;DHT22;10574;52.508;13.236;2023-08-07T12:39:00;18.80;99.90
20827;DHT22;10574;52.508;13.236;2023-08-07T12:41:27;18.70;99.90
20827;DHT22;10574;52.508;13.236;2023-08-07T12:43:55;18.80;99.90
20827;DHT22;10574;52.508;13.236;2023-08-07T12:46:23;18.70;99.90
20827;DHT22;10574;52.508;13.236;2023-08-07T12:48:51;18.70;99.90
20827;DHT22;10574;52.508;13.236;2023-08-07T12:51:22;18.70;99.90
20827;DHT22;10574;52.508;13.236;2023-08-07T12:53:50;18.60;99.90
20827;DHT22;10574;52.508;13.236;2023-08-07T12:56:18;18.40;99.90
20827;DHT22;10574;52.508;13.236;2023-08-07T12:58:46;18.40;99.90
20827;DHT22;10574;52.508;13.236;2023-08-07T13:01:14;18.40;99.90
20827;DHT22;10574;52.508;13.236;2023-08-07T13:03:42;18.60;99.90
20827;DHT22;10574;52.508;13.236;2023-08-07T13:06:10;19.00;99.90
20827;DHT22;10574;52.508;13.236;2023-08-07T13:08:38;19.20;99.90
20827;DHT22;10574;52.508;13.236;2023-08-07T13:11:07;19.60;99.90
20827;DHT22;10574;52.508;13.236;2023-08-07T13:13:35;19.80;99.90
20827;DHT22;10574;52.508;13.236;2023-08-07T13:16:09;19.90;99.90
20827;DHT22;10574;52.508;13.236;2023-08-07T13:18:38;19.90;99.90
20827;DHT22;10574;52.508;13.236;2023-08-07T13:21:06;19.70;99.90
20827;DHT22;10574;52.508;13.236;2023-08-07T13:23:34;19.50;99.90
20827;DHT22;10574;52.508;13.236;2023-08-07T13:26:02;19.40;99.90
20827;DHT22;10574;52.508;13.236;2023-08-07T13:28:29;19.30;99.90
20827;DHT22;10574;52.508;13.236;2023-08-07T13:30:57;19.30;99.90
20827;DHT22;10574;52.508;13.236;2023-08-07T13:33:25;19.20;99.90
20827;DHT22;10574;52.508;13.236;2023-08-07T13:35:52;19.40;99.90
20827;DHT22;10574;52.508;13.236;2023-08-07T13:38:20;19.50;99.90
20827;DHT22;10574;52.508;13.236;2023-08-07T13:40:48;19.60;99.90
20827;DHT22;10574;52.508;13.236;2023-08-07T13:43:17;19.70;99.90
20827;DHT22;10574;52.508;13.236;2023-08-07T13:45:45;19.70;99.90
20827;DHT22;10574;52.508;13.236;2023-08-07T13:48:12;19.70;99.90
20827;DHT22;10574;52.508;13.236;2023-08-07T13:50:40;19.70;99.90
20827;DHT22;10574;52.508;13.236;2023-08-07T13:53:08;19.80;99.90
20827;DHT22;10574;52.508;13.236;2023-08-07T13:55:36;19.80;99.90
20827;DHT22;10574;52.508;13.236;2023-08-07T13:58:03;19.70;99.90
20827;DHT22;10574;52.508;13.236;2023-08-07T14:00:31;19.60;99.90
20827;DHT22;10574;52.508;13.236;2023-08-07T14:03:01;19.60;99.90
20827;DHT22;10574;52.508;13.236;2023-08-07T14:05:30;19.50;99.90
20827;DHT22;10574;52.508;13.236;2023-08-07T14:07:58;19.50;99.90
20827;DHT22;10574;52.508;13.236;2023-08-07T14:10:27;19.50;99.90
20827;DHT22;10574;52.508;13.236;2023-08-07T14:12:55;19.40;99.90
20827;DHT22;10574;52.508;13.236;2023-08-07T14:15:22;19.30;99.90
20827;DHT22;10574;52.508;13.236;2023-08-07T14:17:52;19.30;99.90
20827;DHT22;10574;52.508;13.236;2023-08-07T14:20:20;19.20;99.90
20827;DHT22;10574;52.508;13.236;2023-08-07T14:22:48;19.10;99.90
20827;DHT22;10574;52.508;13.236;2023-08-07T14:25:16;19.00;99.90
20827;DHT22;10574;52.508;13.236;2023-08-07T14:27:43;18.90;99.90
20827;DHT22;10574;52.508;13.236;2023-08-07T14:30:11;18.80;99.90
20827;DHT22;10574;52.508;13.236;2023-08-07T14:32:39;18.80;99.90
20827;DHT22;10574;52.508;13.236;2023-08-07T14:35:07;18.80;99.90
20827;DHT22;10574;52.508;13.236;2023-08-07T14:37:35;18.90;99.90
20827;DHT22;10574;52.508;13.236;2023-08-07T14:40:03;19.00;99.90
20827;DHT22;10574;52.508;13.236;2023-08-07T14:42:31;19.10;99.90
20827;DHT22;10574;52.508;13.236;2023-08-07T14:44:59;19.10;99.90
20827;DHT22;10574;52.508;13.236;2023-08-07T14:47:30;19.10;99.90
20827;DHT22;10574;52.508;13.236;2023-08-07T14:50:00;19.10;99.90
20827;DHT22;10574;52.508;13.236;2023-08-07T14:52:28;19.10;99.90
20827;DHT22;10574;52.508;13.236;2023-08-07T14:54:56;19.00;99.90
20827;DHT22;10574;52.508;13.236;2023-08-07T14:57:24;19.00;99.90
20827;DHT22;10574;52.508;13.236;2023-08-07T14:59:51;18.90;99.90
20827;DHT22;10574;52.508;13.236;2023-08-07T15:02:19;18.90;99.90
20827;DHT22;10574;52.508;13.236;2023-08-07T15:04:46;18.90;99.90
20827;DHT22;10574;52.508;13.236;2023-08-07T15:07:14;19.00;99.90
20827;DHT22;10574;52.508;13.236;2023-08-07T15:09:42;19.00;99.90
20827;DHT22;10574;52.508;13.236;2023-08-07T15:12:10;19.00;99.90
20827;DHT22;10574;52.508;13.236;2023-08-07T15:14:38;18.90;99.90
20827;DHT22;10574;52.508;13.236;2023-08-07T15:17:06;18.90;99.90
20827;DHT22;10574;52.508;13.236;2023-08-07T15:19:33;19.00;99.90
20827;DHT22;10574;52.508;13.236;2023-08-07T15:22:01;19.00;99.90
20827;DHT22;10574;52.508;13.236;2023-08-07T15:24:29;19.00;99.90
20827;DHT22;10574;52.508;13.236;2023-08-07T15:26:57;18.90;99.90
20827;DHT22;10574;52.508;13.236;2023-08-07T15:29:25;18.90;99.90